createdAt,value
2022-10-18T00:02:03.441Z,15.84
2022-10-18T00:04:29.648Z,15.84
2022-10-18T00:06:55.745Z,15.89
2022-10-18T00:09:21.826Z,15.89
2022-10-18T00:11:47.936Z,15.97
2022-10-18T00:14:14.038Z,15.96
2022-10-18T00:16:40.121Z,16.02
2022-10-18T00:19:06.223Z,15.93
2022-10-18T00:21:32.390Z,15.89
2022-10-18T00:23:58.490Z,15.94
2022-10-18T00:26:24.652Z,15.95
2022-10-18T00:28:50.782Z,15.92
2022-10-18T00:31:16.985Z,15.86
2022-10-18T00:33:43.236Z,15.75
2022-10-18T00:36:09.356Z,15.72
2022-10-18T00:38:35.449Z,15.67
2022-10-18T00:41:01.579Z,15.70
2022-10-18T00:43:27.685Z,15.70
2022-10-18T00:45:53.781Z,15.71
2022-10-18T00:48:19.910Z,15.76
2022-10-18T00:50:46.011Z,15.76
2022-10-18T00:53:12.111Z,15.75
2022-10-18T00:55:38.214Z,15.73
2022-10-18T00:58:04.301Z,15.67
2022-10-18T01:00:30.383Z,15.59
2022-10-18T01:02:56.519Z,15.59
2022-10-18T01:05:22.609Z,15.70
2022-10-18T01:07:48.703Z,15.75
2022-10-18T01:10:14.814Z,15.75
2022-10-18T01:12:40.915Z,15.64
2022-10-18T01:15:07.019Z,15.69
2022-10-18T01:17:33.301Z,15.79
2022-10-18T01:19:59.698Z,15.77
2022-10-18T01:22:25.779Z,15.75
2022-10-18T01:24:51.940Z,15.77
2022-10-18T01:27:24.277Z,15.82
2022-10-18T01:29:50.359Z,15.74
2022-10-18T01:32:16.460Z,15.75
2022-10-18T01:34:42.557Z,15.65
2022-10-18T01:37:08.641Z,15.66
2022-10-18T01:42:24.870Z,15.67
2022-10-18T01:44:50.970Z,15.74
2022-10-18T01:47:17.069Z,15.69
2022-10-18T01:49:43.178Z,15.64
2022-10-18T01:52:09.283Z,15.69
2022-10-18T01:54:35.390Z,15.63
2022-10-18T01:57:01.497Z,15.61
2022-10-18T01:59:27.656Z,15.60
2022-10-18T02:01:53.750Z,15.62
2022-10-18T02:04:19.851Z,15.64
2022-10-18T02:06:45.953Z,15.69
2022-10-18T02:09:12.065Z,15.69
2022-10-18T02:11:38.173Z,15.64
2022-10-18T02:14:04.263Z,15.61
2022-10-18T02:16:30.383Z,15.62
2022-10-18T02:18:56.530Z,15.64
2022-10-18T02:21:22.629Z,15.70
2022-10-18T02:23:48.722Z,15.67
2022-10-18T02:26:14.820Z,15.66
2022-10-18T02:28:40.909Z,15.72
2022-10-18T02:31:06.998Z,15.74
2022-10-18T02:33:33.122Z,15.79
2022-10-18T02:35:59.221Z,15.71
2022-10-18T02:38:25.327Z,15.72
2022-10-18T02:40:51.995Z,15.67
2022-10-18T02:43:18.079Z,15.65
2022-10-18T02:45:44.186Z,15.66
2022-10-18T02:48:10.290Z,15.62
2022-10-18T02:50:36.409Z,15.60
2022-10-18T02:53:02.525Z,15.58
2022-10-18T02:57:59.632Z,15.43
2022-10-18T03:00:25.733Z,15.48
2022-10-18T03:02:51.833Z,15.55
2022-10-18T03:05:17.968Z,15.50
2022-10-18T03:07:44.063Z,15.48
2022-10-18T03:10:10.186Z,15.50
2022-10-18T03:12:36.282Z,15.56
2022-10-18T03:15:02.379Z,15.55
2022-10-18T03:17:28.562Z,15.54
2022-10-18T03:19:54.772Z,15.42
2022-10-18T03:22:20.904Z,15.38
2022-10-18T03:24:47.039Z,15.39
2022-10-18T03:27:13.138Z,15.32
2022-10-18T03:29:39.263Z,15.39
2022-10-18T03:32:05.369Z,15.47
2022-10-18T03:34:31.480Z,15.40
2022-10-18T03:37:00.908Z,15.36
2022-10-18T03:39:29.574Z,15.40
2022-10-18T03:41:55.743Z,15.45
2022-10-18T03:44:21.844Z,15.40
2022-10-18T03:46:47.950Z,15.28
2022-10-18T03:49:14.039Z,15.31
2022-10-18T03:51:40.161Z,15.36
2022-10-18T03:54:06.265Z,15.29
2022-10-18T03:56:32.375Z,15.29
2022-10-18T03:58:58.473Z,15.28
2022-10-18T04:01:24.687Z,15.26
2022-10-18T04:03:50.832Z,15.26
2022-10-18T04:06:16.941Z,15.25
2022-10-18T04:08:43.057Z,15.30
2022-10-18T04:11:09.153Z,15.30
2022-10-18T04:13:35.263Z,15.30
2022-10-18T04:16:01.377Z,15.27
2022-10-18T04:18:27.473Z,15.31
2022-10-18T04:20:53.556Z,15.42
2022-10-18T04:23:19.677Z,15.39
2022-10-18T04:25:45.781Z,15.31
2022-10-18T04:28:11.885Z,15.22
2022-10-18T04:30:38.009Z,15.30
2022-10-18T04:33:04.130Z,15.42
2022-10-18T04:35:30.233Z,15.29
2022-10-18T04:37:56.362Z,15.28
2022-10-18T04:40:22.459Z,15.28
2022-10-18T04:42:48.560Z,15.32
2022-10-18T04:45:14.684Z,15.28
2022-10-18T04:47:40.803Z,15.29
2022-10-18T04:50:06.901Z,15.21
2022-10-18T04:52:33.564Z,15.19
2022-10-18T04:54:59.670Z,15.32
2022-10-18T04:57:25.771Z,15.38
2022-10-18T04:59:51.902Z,15.36
2022-10-18T05:02:18.002Z,15.38
2022-10-18T05:04:44.127Z,15.24
2022-10-18T05:07:10.223Z,15.20
2022-10-18T05:09:36.313Z,15.21
2022-10-18T05:12:02.432Z,15.22
2022-10-18T05:14:28.571Z,15.19
2022-10-18T05:16:54.665Z,15.18
2022-10-18T05:19:20.782Z,15.16
2022-10-18T05:21:46.910Z,15.16
2022-10-18T05:24:13.019Z,15.20
2022-10-18T05:26:39.150Z,15.16
2022-10-18T05:29:05.392Z,15.07
2022-10-18T05:31:31.592Z,15.10
2022-10-18T05:33:57.683Z,15.19
2022-10-18T05:36:23.789Z,15.16
2022-10-18T05:38:49.884Z,15.12
2022-10-18T05:41:16.002Z,15.15
2022-10-18T05:43:42.101Z,15.17
2022-10-18T05:46:11.851Z,15.13
2022-10-18T05:48:39.977Z,15.10
2022-10-18T05:51:06.104Z,15.12
2022-10-18T05:53:36.631Z,15.12
2022-10-18T05:56:03.486Z,15.15
2022-10-18T05:58:29.640Z,15.21
2022-10-18T06:00:55.742Z,15.30
2022-10-18T06:03:21.831Z,15.34
2022-10-18T06:05:47.943Z,15.23
2022-10-18T06:08:14.079Z,15.22
2022-10-18T06:10:40.167Z,15.26
2022-10-18T06:13:06.271Z,15.33
2022-10-18T06:15:32.371Z,15.32
2022-10-18T06:17:58.457Z,15.22
2022-10-18T06:20:24.570Z,15.22
2022-10-18T06:22:50.668Z,15.29
2022-10-18T06:25:16.752Z,15.33
2022-10-18T06:27:42.860Z,15.37
2022-10-18T06:30:08.955Z,15.37
2022-10-18T06:32:35.051Z,15.34
2022-10-18T06:35:01.163Z,15.33
2022-10-18T06:37:27.297Z,15.36
2022-10-18T06:39:53.416Z,15.35
2022-10-18T06:42:22.540Z,15.35
2022-10-18T06:44:48.867Z,15.38
2022-10-18T06:47:14.999Z,15.43
2022-10-18T06:49:41.118Z,15.40
2022-10-18T06:52:07.211Z,15.37
2022-10-18T06:54:33.304Z,15.33
2022-10-18T06:56:59.703Z,15.27
2022-10-18T06:59:28.888Z,15.26
2022-10-18T07:01:57.339Z,15.29
2022-10-18T07:04:23.507Z,15.26
2022-10-18T07:06:49.588Z,15.25
2022-10-18T07:09:15.682Z,15.21
2022-10-18T07:11:41.799Z,15.28
2022-10-18T07:14:08.804Z,15.33
2022-10-18T07:16:35.664Z,15.41
2022-10-18T07:19:01.770Z,15.34
2022-10-18T07:21:27.853Z,15.37
2022-10-18T07:23:53.963Z,15.34
2022-10-18T07:26:20.065Z,15.30
2022-10-18T07:28:46.190Z,15.36
2022-10-18T07:31:12.335Z,15.41
2022-10-18T07:33:38.438Z,15.45
2022-10-18T07:36:04.535Z,15.48
2022-10-18T07:38:30.669Z,15.39
2022-10-18T07:40:56.804Z,15.38
2022-10-18T07:43:22.893Z,15.40
2022-10-18T07:45:49.007Z,15.42
2022-10-18T07:48:15.116Z,15.42
2022-10-18T07:50:41.213Z,15.41
2022-10-18T07:53:07.296Z,15.41
2022-10-18T07:55:33.415Z,15.41
2022-10-18T07:57:59.514Z,15.43
2022-10-18T08:00:25.607Z,15.45
2022-10-18T08:02:52.086Z,15.49
2022-10-18T08:05:18.198Z,15.46
2022-10-18T08:07:44.279Z,15.39
2022-10-18T08:10:10.398Z,15.32
2022-10-18T08:12:36.576Z,15.25
2022-10-18T08:15:02.694Z,15.24
2022-10-18T08:17:28.852Z,15.26
2022-10-18T08:20:11.734Z,15.20
2022-10-18T08:22:38.691Z,15.19
2022-10-18T08:25:04.800Z,15.28
2022-10-18T08:27:31.179Z,15.30
2022-10-18T08:29:57.622Z,15.28
2022-10-18T08:32:23.755Z,15.26
2022-10-18T08:34:49.847Z,15.24
2022-10-18T08:37:15.992Z,15.19
2022-10-18T08:39:42.091Z,15.16
2022-10-18T08:42:08.184Z,15.24
2022-10-18T08:44:34.299Z,15.21
2022-10-18T08:47:00.385Z,15.18
2022-10-18T08:49:26.494Z,15.18
2022-10-18T08:51:52.615Z,15.21
2022-10-18T08:54:18.713Z,15.20
2022-10-18T08:56:44.811Z,15.23
2022-10-18T08:59:10.930Z,15.29
2022-10-18T09:01:37.090Z,15.32
2022-10-18T09:04:03.233Z,15.22
2022-10-18T09:06:29.354Z,15.17
2022-10-18T09:08:55.478Z,15.18
2022-10-18T09:11:21.638Z,15.10
2022-10-18T09:13:47.803Z,15.00
2022-10-18T09:16:13.908Z,15.05
2022-10-18T09:18:40.001Z,15.09
2022-10-18T09:21:06.153Z,15.06
2022-10-18T09:23:32.261Z,15.02
2022-10-18T09:25:58.356Z,15.02
2022-10-18T09:28:24.510Z,14.96
2022-10-18T09:30:50.638Z,15.00
2022-10-18T09:33:16.735Z,14.96
2022-10-18T09:35:42.854Z,15.08
2022-10-18T09:38:08.960Z,15.23
2022-10-18T09:40:35.054Z,15.28
2022-10-18T09:43:01.174Z,15.30
2022-10-18T09:45:27.275Z,15.33
2022-10-18T09:47:53.379Z,15.35
2022-10-18T09:50:22.241Z,15.30
2022-10-18T09:52:48.332Z,15.39
2022-10-18T09:55:14.497Z,15.40
2022-10-18T09:57:40.641Z,15.40
2022-10-18T10:00:06.728Z,15.29
2022-10-18T10:02:32.862Z,15.23
2022-10-18T10:04:59.068Z,15.26
2022-10-18T10:07:25.211Z,15.38
2022-10-18T10:09:51.318Z,15.45
2022-10-18T10:12:17.760Z,15.51
2022-10-18T10:14:43.857Z,15.57
2022-10-18T10:17:09.954Z,15.60
2022-10-18T10:19:36.066Z,15.65
2022-10-18T10:22:02.153Z,15.55
2022-10-18T10:24:30.457Z,15.66
2022-10-18T10:26:57.437Z,15.83
2022-10-18T10:29:43.656Z,15.76
2022-10-18T10:32:09.680Z,15.84
2022-10-18T10:34:35.801Z,15.97
2022-10-18T10:37:01.891Z,15.85
2022-10-18T10:39:27.999Z,15.90
2022-10-18T10:41:54.125Z,16.01
2022-10-18T10:44:20.231Z,16.00
2022-10-18T10:46:46.568Z,16.01
2022-10-18T10:49:38.664Z,16.09
2022-10-18T10:52:08.555Z,16.10
2022-10-18T10:54:41.658Z,16.17
2022-10-18T10:57:07.783Z,16.22
2022-10-18T10:59:33.902Z,16.33
2022-10-18T11:02:00.036Z,16.35
2022-10-18T11:04:26.152Z,16.42
2022-10-18T11:06:55.262Z,16.46
2022-10-18T11:09:21.338Z,16.50
2022-10-18T11:11:47.444Z,16.61
2022-10-18T11:14:25.311Z,16.63
2022-10-18T11:16:52.540Z,16.76
2022-10-18T11:19:18.636Z,16.77
2022-10-18T11:21:44.799Z,16.72
2022-10-18T11:24:10.915Z,16.66
2022-10-18T11:26:40.893Z,16.66
2022-10-18T11:29:08.879Z,16.76
2022-10-18T11:31:35.015Z,16.77
2022-10-18T11:34:09.376Z,16.79
2022-10-18T11:36:36.778Z,16.80
2022-10-18T11:39:03.073Z,16.79
2022-10-18T11:41:29.192Z,16.79
2022-10-18T11:44:02.781Z,16.87
2022-10-18T11:46:29.570Z,16.95
2022-10-18T11:48:55.665Z,16.94
2022-10-18T11:51:29.664Z,16.91
2022-10-18T11:54:07.844Z,16.74
2022-10-18T11:56:33.959Z,16.71
2022-10-18T11:59:00.060Z,16.59
2022-10-18T12:01:28.493Z,16.56
2022-10-18T12:03:54.938Z,16.68
2022-10-18T12:06:21.033Z,16.89
2022-10-18T12:08:47.133Z,17.20
2022-10-18T12:11:13.273Z,17.13
2022-10-18T12:13:39.371Z,17.25
2022-10-18T12:16:05.477Z,17.16
2022-10-18T12:18:31.922Z,17.00
2022-10-18T12:20:58.091Z,17.03
2022-10-18T12:23:24.326Z,16.86
2022-10-18T12:25:50.487Z,16.83
2022-10-18T12:28:16.593Z,16.83
2022-10-18T12:30:42.695Z,16.86
2022-10-18T12:33:27.098Z,16.82
2022-10-18T12:35:53.707Z,16.75
2022-10-18T12:38:19.830Z,16.64
2022-10-18T12:40:45.908Z,16.81
2022-10-18T12:43:12.007Z,16.98
2022-10-18T12:45:38.131Z,17.00
2022-10-18T12:48:04.229Z,17.08
2022-10-18T12:50:30.339Z,17.36
2022-10-18T12:52:56.442Z,17.61
2022-10-18T12:55:22.541Z,17.64
2022-10-18T12:57:48.660Z,17.48
2022-10-18T13:00:14.786Z,17.43
2022-10-18T13:02:40.892Z,17.45
2022-10-18T13:05:16.435Z,17.35
2022-10-18T13:07:53.127Z,17.43
2022-10-18T13:10:19.242Z,17.33
2022-10-18T13:12:45.337Z,17.25
2022-10-18T13:15:24.766Z,17.21
2022-10-18T13:17:51.904Z,17.27
2022-10-18T13:20:26.212Z,17.47
2022-10-18T13:22:53.092Z,17.54
2022-10-18T13:25:19.208Z,17.57
2022-10-18T13:27:45.709Z,17.69
2022-10-18T13:30:11.957Z,17.78
2022-10-18T13:32:38.085Z,17.88
2022-10-18T13:35:04.167Z,18.04
2022-10-18T13:37:30.354Z,17.91
2022-10-18T13:39:56.498Z,17.54
2022-10-18T13:42:22.613Z,17.27
2022-10-18T13:44:48.729Z,17.31
2022-10-18T13:47:14.834Z,17.15
2022-10-18T13:49:40.942Z,17.13
2022-10-18T13:52:07.028Z,17.17
2022-10-18T13:54:33.137Z,17.16
2022-10-18T13:56:59.239Z,17.22
2022-10-18T13:59:25.373Z,17.28
2022-10-18T14:01:53.342Z,17.42
2022-10-18T14:04:19.590Z,17.55
2022-10-18T14:06:45.702Z,17.61
2022-10-18T14:09:25.444Z,17.76
2022-10-18T14:11:57.892Z,17.62
2022-10-18T14:14:24.008Z,17.58
2022-10-18T14:16:50.106Z,17.53
2022-10-18T14:19:16.210Z,17.57
2022-10-18T14:21:42.664Z,17.64
2022-10-18T14:24:08.763Z,17.45
2022-10-18T14:26:34.950Z,17.38
2022-10-18T14:29:01.214Z,17.39
2022-10-18T14:31:27.427Z,17.40
2022-10-18T14:33:57.248Z,17.43
2022-10-18T14:36:24.343Z,17.53
2022-10-18T14:38:50.451Z,17.61
2022-10-18T14:41:16.569Z,17.73
2022-10-18T14:43:42.690Z,17.84
2022-10-18T14:46:08.780Z,17.72
2022-10-18T14:48:34.879Z,17.65
2022-10-18T14:51:00.996Z,17.49
2022-10-18T14:53:27.089Z,17.60
2022-10-18T14:55:53.198Z,17.52
2022-10-18T14:58:19.322Z,17.46
2022-10-18T15:00:47.785Z,17.60
2022-10-18T15:03:14.775Z,18.02
2022-10-18T15:05:40.876Z,18.13
2022-10-18T15:08:06.979Z,18.22
2022-10-18T15:10:33.094Z,18.03
2022-10-18T15:13:09.245Z,18.20
2022-10-18T15:15:36.170Z,17.62
2022-10-18T15:18:02.291Z,17.48
2022-10-18T15:20:28.379Z,17.91
2022-10-18T15:22:54.466Z,18.38
2022-10-18T15:25:20.873Z,18.25
2022-10-18T15:27:46.956Z,17.61
2022-10-18T15:30:13.050Z,17.40
2022-10-18T15:32:39.162Z,17.73
2022-10-18T15:35:05.257Z,17.81
2022-10-18T15:37:31.948Z,18.08
2022-10-18T15:39:58.363Z,18.69
2022-10-18T15:42:24.482Z,18.89
2022-10-18T15:44:50.655Z,19.18
2022-10-18T15:47:16.801Z,19.24
2022-10-18T15:49:42.902Z,19.21
2022-10-18T15:52:08.999Z,19.04
2022-10-18T15:54:35.214Z,18.84
2022-10-18T15:57:01.377Z,18.33
2022-10-18T15:59:27.470Z,18.05
2022-10-18T16:01:53.701Z,18.18
2022-10-18T16:04:19.840Z,18.10
2022-10-18T16:06:45.942Z,17.71
2022-10-18T16:09:12.159Z,17.51
2022-10-18T16:11:38.296Z,17.30
2022-10-18T16:14:04.392Z,17.34
2022-10-18T16:16:30.533Z,17.25
2022-10-18T16:18:56.646Z,17.02
2022-10-18T16:21:22.749Z,16.80
2022-10-18T16:23:48.859Z,16.76
2022-10-18T16:26:14.968Z,16.63
2022-10-18T16:28:41.115Z,16.46
2022-10-18T16:31:07.308Z,16.36
2022-10-18T16:33:33.443Z,16.33
2022-10-18T16:35:59.541Z,16.16
2022-10-18T16:38:25.676Z,15.92
2022-10-18T16:40:51.765Z,15.89
2022-10-18T16:43:17.859Z,15.85
2022-10-18T16:45:43.966Z,15.66
2022-10-18T16:48:10.043Z,15.57
2022-10-18T16:50:36.132Z,15.63
2022-10-18T16:53:02.267Z,15.59
2022-10-18T16:55:28.376Z,15.43
2022-10-18T16:57:54.469Z,15.33
2022-10-18T17:00:20.590Z,15.16
2022-10-18T17:02:46.684Z,15.03
2022-10-18T17:05:12.776Z,14.94
2022-10-18T17:07:38.887Z,14.96
2022-10-18T17:10:05.045Z,14.89
2022-10-18T17:12:31.408Z,14.89
2022-10-18T17:14:57.753Z,14.79
2022-10-18T17:17:23.861Z,14.72
2022-10-18T17:19:49.963Z,14.58
2022-10-18T17:22:16.427Z,14.67
2022-10-18T17:24:42.526Z,14.67
2022-10-18T17:27:08.618Z,14.56
2022-10-18T17:29:35.235Z,14.38
2022-10-18T17:32:01.332Z,14.36
2022-10-18T17:34:27.429Z,14.22
2022-10-18T17:36:53.567Z,14.09
2022-10-18T17:39:19.672Z,14.04
2022-10-18T17:41:45.794Z,14.12
2022-10-18T17:44:11.918Z,13.79
2022-10-18T17:46:38.017Z,13.78
2022-10-18T17:49:04.114Z,13.80
2022-10-18T17:51:30.231Z,13.79
2022-10-18T17:53:56.331Z,13.75
2022-10-18T17:56:22.453Z,13.74
2022-10-18T17:58:48.579Z,13.53
2022-10-18T18:01:14.667Z,13.32
2022-10-18T18:03:40.748Z,13.30
2022-10-18T18:06:06.894Z,13.31
2022-10-18T18:08:33.018Z,13.44
2022-10-18T18:10:59.113Z,13.30
2022-10-18T18:13:25.225Z,13.02
2022-10-18T18:15:51.553Z,13.14
2022-10-18T18:18:17.685Z,13.18
2022-10-18T18:20:43.807Z,13.12
2022-10-18T18:23:09.894Z,12.98
2022-10-18T18:25:35.988Z,12.88
2022-10-18T18:28:05.219Z,12.84
2022-10-18T18:30:33.544Z,12.65
2022-10-18T18:32:59.637Z,12.64
2022-10-18T18:35:26.234Z,12.52
2022-10-18T18:37:52.392Z,12.70
2022-10-18T18:40:18.529Z,12.63
2022-10-18T18:42:46.037Z,12.65
2022-10-18T18:45:16.304Z,12.48
2022-10-18T18:47:42.461Z,12.45
2022-10-18T18:50:08.587Z,12.36
2022-10-18T18:52:35.000Z,12.20
2022-10-18T18:55:01.305Z,11.99
2022-10-18T18:57:27.442Z,12.02
2022-10-18T18:59:53.549Z,11.97
2022-10-18T19:02:19.633Z,11.96
2022-10-18T19:04:45.751Z,12.06
2022-10-18T19:07:11.890Z,11.91
2022-10-18T19:09:37.990Z,11.85
2022-10-18T19:12:04.301Z,11.69
2022-10-18T19:14:30.401Z,11.67
2022-10-18T19:16:56.493Z,11.66
2022-10-18T19:19:22.593Z,11.72
2022-10-18T19:21:48.682Z,11.72
2022-10-18T19:24:14.788Z,11.65
2022-10-18T19:26:40.908Z,11.63
2022-10-18T19:29:07.122Z,11.65
2022-10-18T19:31:33.256Z,11.34
2022-10-18T19:34:00.066Z,11.27
2022-10-18T19:36:26.426Z,11.32
2022-10-18T19:38:52.521Z,11.49
2022-10-18T19:41:18.681Z,11.55
2022-10-18T19:43:44.811Z,11.43
2022-10-18T19:46:10.925Z,11.43
2022-10-18T19:48:37.039Z,11.29
2022-10-18T19:51:03.149Z,11.43
2022-10-18T19:53:29.260Z,11.49
2022-10-18T19:55:55.390Z,11.39
2022-10-18T19:58:21.482Z,11.40
2022-10-18T20:00:47.568Z,11.27
2022-10-18T20:03:13.680Z,11.13
2022-10-18T20:05:39.792Z,11.20
2022-10-18T20:08:05.892Z,11.23
2022-10-18T20:10:32.034Z,11.30
2022-10-18T20:12:58.122Z,11.15
2022-10-18T20:15:24.234Z,11.08
2022-10-18T20:17:50.348Z,11.02
2022-10-18T20:20:16.442Z,10.92
2022-10-18T20:22:42.540Z,10.78
2022-10-18T20:25:08.652Z,10.95
2022-10-18T20:27:35.227Z,10.99
2022-10-18T20:30:01.553Z,10.84
2022-10-18T20:32:28.135Z,10.88
2022-10-18T20:34:54.234Z,10.80
2022-10-18T20:37:20.354Z,10.77
2022-10-18T20:39:46.782Z,10.70
2022-10-18T20:42:12.868Z,10.76
2022-10-18T20:44:38.953Z,10.78
2022-10-18T20:47:05.073Z,10.78
2022-10-18T20:49:31.161Z,10.69
2022-10-18T20:51:57.257Z,10.72
2022-10-18T20:54:23.366Z,10.71
2022-10-18T20:56:49.448Z,10.72
2022-10-18T20:59:15.532Z,10.75
2022-10-18T21:01:41.698Z,10.70
2022-10-18T21:04:07.818Z,10.66
2022-10-18T21:06:33.912Z,10.58
2022-10-18T21:09:00.041Z,10.66
2022-10-18T21:11:26.164Z,10.73
2022-10-18T21:13:52.265Z,10.70
2022-10-18T21:16:18.360Z,10.69
2022-10-18T21:18:44.450Z,10.55
2022-10-18T21:21:10.551Z,10.46
2022-10-18T21:23:36.670Z,10.41
2022-10-18T21:26:02.765Z,10.17
2022-10-18T21:28:28.913Z,10.18
2022-10-18T21:30:55.087Z,10.16
2022-10-18T21:33:21.183Z,10.17
2022-10-18T21:35:47.297Z,10.18
2022-10-18T21:38:13.440Z,10.17
2022-10-18T21:40:39.542Z,10.10
2022-10-18T21:43:05.654Z,9.96
2022-10-18T21:45:31.825Z,9.99
2022-10-18T21:47:57.914Z,9.91
2022-10-18T21:50:23.995Z,9.94
2022-10-18T21:52:50.123Z,9.80
2022-10-18T21:55:16.217Z,9.63
2022-10-18T21:57:42.336Z,9.83
2022-10-18T22:00:08.445Z,9.81
2022-10-18T22:02:34.898Z,9.73
2022-10-18T22:05:01.177Z,9.75
2022-10-18T22:07:27.297Z,9.69
2022-10-18T22:09:53.393Z,9.79
2022-10-18T22:12:19.510Z,9.77
2022-10-18T22:14:45.628Z,9.80
2022-10-18T22:17:11.728Z,9.80
2022-10-18T22:19:37.834Z,9.78
2022-10-18T22:22:03.948Z,9.57
2022-10-18T22:24:30.130Z,9.52
2022-10-18T22:26:56.230Z,9.57
2022-10-18T22:29:22.335Z,9.67
2022-10-18T22:31:48.430Z,9.75
2022-10-18T22:34:14.528Z,9.64
2022-10-18T22:36:41.442Z,9.59
2022-10-18T22:39:07.535Z,9.60
2022-10-18T22:41:33.619Z,9.59
2022-10-18T22:44:02.640Z,9.51
2022-10-18T22:46:29.856Z,9.47
2022-10-18T22:48:55.974Z,9.39
2022-10-18T22:51:22.174Z,9.31
2022-10-18T22:53:48.308Z,9.39
2022-10-18T22:56:14.412Z,9.54
2022-10-18T22:58:40.531Z,9.39
2022-10-18T23:01:06.660Z,9.43
2022-10-18T23:03:32.764Z,9.33
2022-10-18T23:05:58.869Z,9.32
2022-10-18T23:08:24.976Z,9.36
2022-10-18T23:10:51.075Z,9.37
2022-10-18T23:13:17.179Z,9.32
2022-10-18T23:15:43.270Z,9.17
2022-10-18T23:18:09.383Z,9.21
2022-10-18T23:20:35.494Z,9.25
2022-10-18T23:23:01.593Z,9.16
2022-10-18T23:25:27.727Z,9.12
2022-10-18T23:27:53.868Z,9.03
2022-10-18T23:30:19.992Z,9.10
2022-10-18T23:32:46.091Z,9.13
2022-10-18T23:35:12.205Z,9.20
2022-10-18T23:37:38.299Z,9.03
2022-10-18T23:40:04.378Z,8.74
2022-10-18T23:42:30.915Z,8.98
2022-10-18T23:44:57.012Z,9.03
2022-10-18T23:47:23.127Z,8.87
2022-10-18T23:49:49.284Z,8.82
2022-10-18T23:52:15.422Z,8.92
2022-10-18T23:54:41.624Z,8.83
2022-10-18T23:57:07.827Z,8.88
2022-10-18T23:59:33.921Z,8.77
